createdAt,value
2024-04-21T00:02:43.764Z,99406.22
2024-04-21T00:08:46.480Z,99415.84
2024-04-21T00:15:02.513Z,99412.84
2024-04-21T00:28:39.172Z,99407.03
2024-04-21T00:34:55.576Z,99398.22
2024-04-21T00:41:23.664Z,99397.03
2024-04-21T00:47:29.342Z,99398.75
2024-04-21T00:53:41.047Z,99396.56
2024-04-21T00:59:55.325Z,99394.91
2024-04-21T01:06:07.112Z,99392.94
2024-04-21T01:12:26.757Z,99389.28
2024-04-21T01:18:50.551Z,99382.13
2024-04-21T01:25:04.201Z,99381.28
2024-04-21T01:31:15.785Z,99381.81
2024-04-21T01:37:18.555Z,99370.00
2024-04-21T01:43:30.173Z,99370.31
2024-04-21T01:49:42.557Z,99379.81
2024-04-21T01:56:02.633Z,99373.16
2024-04-21T02:02:22.376Z,99375.31
2024-04-21T02:08:29.573Z,99380.31
2024-04-21T02:14:32.400Z,99385.47
2024-04-21T02:27:00.356Z,99392.97
2024-04-21T02:33:06.076Z,99395.28
2024-04-21T02:39:20.726Z,99393.28
2024-04-21T02:45:24.509Z,99400.88
2024-04-21T02:51:26.987Z,99390.75
2024-04-21T02:57:38.703Z,99407.63
2024-04-21T03:04:01.021Z,99417.97
2024-04-21T03:10:08.091Z,99421.47
2024-04-21T03:16:25.194Z,99426.00
2024-04-21T03:22:28.175Z,99418.56
2024-04-21T03:29:19.797Z,99412.97
2024-04-21T03:35:09.083Z,99430.13
2024-04-21T03:49:02.237Z,99447.03
2024-04-21T04:09:28.664Z,99456.66
2024-04-21T04:15:50.087Z,99455.53
2024-04-21T04:23:15.827Z,99461.91
2024-04-21T05:07:43.927Z,99504.59
2024-04-21T05:13:56.450Z,99520.84
2024-04-21T06:58:35.698Z,99673.41
2024-04-21T07:21:12.726Z,99684.03
2024-04-21T07:56:40.572Z,99712.75
2024-04-21T08:02:59.338Z,99713.44
2024-04-21T08:09:21.760Z,99730.59
2024-04-21T08:30:32.639Z,99751.81
2024-04-21T08:38:07.195Z,99758.31
2024-04-21T08:43:57.539Z,99763.91
2024-04-21T08:50:25.698Z,99767.31
2024-04-21T08:56:31.719Z,99771.41
2024-04-21T09:03:34.567Z,99781.81
2024-04-21T09:18:47.726Z,99782.84
2024-04-21T09:54:59.049Z,99804.34
2024-04-21T10:01:38.944Z,99800.44
2024-04-21T10:07:52.852Z,99814.50
2024-04-21T10:21:09.579Z,99826.06
2024-04-21T10:27:51.174Z,99822.97
2024-04-21T10:50:47.451Z,99844.69
2024-04-21T10:57:09.849Z,99853.22
2024-04-21T11:10:08.723Z,99871.69
2024-04-21T11:17:29.956Z,99865.69
2024-04-21T11:24:56.314Z,99876.81
2024-04-21T11:31:07.182Z,99885.66
2024-04-21T11:37:34.672Z,99882.94
2024-04-21T11:43:37.697Z,99885.81
2024-04-21T11:57:07.030Z,99901.19
2024-04-21T12:03:50.110Z,99906.25
2024-04-21T12:09:45.523Z,99911.88
2024-04-21T12:31:27.584Z,99921.56
2024-04-21T13:15:40.246Z,99906.91
2024-04-21T13:57:53.416Z,99899.00
2024-04-21T14:05:11.464Z,99902.88
2024-04-21T14:11:24.617Z,99900.50
2024-04-21T14:39:01.087Z,99900.19
2024-04-21T14:45:27.274Z,99904.34
2024-04-21T14:51:29.795Z,99894.16
2024-04-21T14:57:32.923Z,99907.63
2024-04-21T15:05:09.789Z,99904.75
2024-04-21T15:26:51.051Z,99904.91
2024-04-21T15:39:01.059Z,99903.75
2024-04-21T15:45:06.502Z,99900.41
2024-04-21T15:51:22.106Z,99916.75
2024-04-21T15:57:48.042Z,99920.94
2024-04-21T16:04:22.447Z,99921.38
2024-04-21T16:10:25.252Z,99924.88
2024-04-21T16:31:10.874Z,99937.88
2024-04-21T16:37:25.924Z,99937.75
2024-04-21T16:43:32.330Z,99930.06
2024-04-21T17:04:15.062Z,99945.78
2024-04-21T17:10:23.142Z,99957.06
2024-04-21T17:16:26.064Z,99957.66
2024-04-21T17:22:38.222Z,99948.34
2024-04-21T17:35:25.257Z,99958.31
2024-04-21T17:41:52.593Z,99957.25
2024-04-21T17:47:58.297Z,99965.44
2024-04-21T18:24:50.505Z,99993.97
2024-04-21T18:31:27.361Z,99998.41
2024-04-21T18:37:29.821Z,99997.91
2024-04-21T18:51:07.314Z,99998.78
2024-04-21T19:03:45.844Z,100006.28
2024-04-21T19:12:55.082Z,100006.75
2024-04-21T19:16:37.987Z,100005.06
2024-04-21T19:22:41.865Z,100007.75
2024-04-21T19:28:44.631Z,100005.97
2024-04-21T19:35:07.993Z,100004.88
2024-04-21T19:41:10.484Z,99998.03
2024-04-21T19:47:16.173Z,100004.19
2024-04-21T19:53:18.613Z,99999.72
2024-04-21T20:07:19.735Z,99999.31
2024-04-21T20:21:43.504Z,100027.09
2024-04-21T20:28:11.560Z,100028.88
2024-04-21T20:49:52.259Z,100042.88
2024-04-21T20:55:30.901Z,100043.47
2024-04-21T21:02:26.798Z,100054.84
2024-04-21T21:08:36.835Z,100058.75
2024-04-21T21:23:10.058Z,100067.75
2024-04-21T21:29:34.316Z,100065.66
2024-04-21T21:35:39.263Z,100071.66
2024-04-21T21:42:31.646Z,100060.22
2024-04-21T21:57:04.538Z,100060.22
2024-04-21T22:03:37.510Z,100047.22
2024-04-21T22:32:22.145Z,100046.94
2024-04-21T22:46:29.885Z,100056.84
2024-04-21T23:07:04.928Z,100051.75
2024-04-21T23:20:45.430Z,100048.19
2024-04-21T23:34:31.252Z,100035.66
2024-04-21T23:41:49.386Z,100037.22
